sensor_id;sensor_type;location;lat;lon;timestamp;pressure;altitude;pressure_sealevel;temperature;humidity
66381;BME280;53177;52.648;1.214;2024-03-22T00:00:01;101314.75;;;10.54;71.88
66381;BME280;53177;52.648;1.214;2024-03-22T00:02:26;101303.28;;;10.55;72.13
66381;BME280;53177;52.648;1.214;2024-03-22T00:04:52;101306.81;;;10.56;72.62
66381;BME280;53177;52.648;1.214;2024-03-22T00:07:17;101311.25;;;10.52;72.95
66381;BME280;53177;52.648;1.214;2024-03-22T00:09:42;101312.97;;;10.55;71.95
66381;BME280;53177;52.648;1.214;2024-03-22T00:12:08;101302.44;;;10.52;73.23
66381;BME280;53177;52.648;1.214;2024-03-22T00:14:33;101296.25;;;10.54;72.67
66381;BME280;53177;52.648;1.214;2024-03-22T00:16:58;101299.81;;;10.50;74.12
66381;BME280;53177;52.648;1.214;2024-03-22T00:19:24;101289.22;;;10.52;74.16
66381;BME280;53177;52.648;1.214;2024-03-22T00:21:49;101292.81;;;10.49;74.23
66381;BME280;53177;52.648;1.214;2024-03-22T00:24:15;101286.63;;;10.47;73.87
66381;BME280;53177;52.648;1.214;2024-03-22T00:26:40;101282.22;;;10.48;74.99
66381;BME280;53177;52.648;1.214;2024-03-22T00:29:05;101279.59;;;10.46;74.82
66381;BME280;53177;52.648;1.214;2024-03-22T00:31:31;101275.22;;;10.44;75.11
66381;BME280;53177;52.648;1.214;2024-03-22T00:33:56;101281.41;;;10.43;75.99
66381;BME280;53177;52.648;1.214;2024-03-22T00:36:22;101268.09;;;10.50;75.50
66381;BME280;53177;52.648;1.214;2024-03-22T00:38:47;101269.84;;;10.50;75.75
66381;BME280;53177;52.648;1.214;2024-03-22T00:41:13;101263.63;;;10.54;75.97
66381;BME280;53177;52.648;1.214;2024-03-22T00:43:38;101264.50;;;10.54;75.96
66381;BME280;53177;52.648;1.214;2024-03-22T00:46:04;101262.00;;;10.44;76.72
66381;BME280;53177;52.648;1.214;2024-03-22T00:48:29;101250.50;;;10.48;76.98
66381;BME280;53177;52.648;1.214;2024-03-22T00:50:55;101253.16;;;10.48;77.13
66381;BME280;53177;52.648;1.214;2024-03-22T00:53:20;101247.84;;;10.48;77.29
66381;BME280;53177;52.648;1.214;2024-03-22T00:55:46;101240.81;;;10.47;77.88
66381;BME280;53177;52.648;1.214;2024-03-22T00:58:17;101239.91;;;10.49;78.09
66381;BME280;53177;52.648;1.214;2024-03-22T01:00:43;101239.13;;;10.41;79.18
66381;BME280;53177;52.648;1.214;2024-03-22T01:03:09;101233.81;;;10.44;78.98
66381;BME280;53177;52.648;1.214;2024-03-22T01:05:35;101227.63;;;10.44;79.77
66381;BME280;53177;52.648;1.214;2024-03-22T01:08:01;101227.53;;;10.53;80.37
66381;BME280;53177;52.648;1.214;2024-03-22T01:10:26;101218.78;;;10.46;80.85
66381;BME280;53177;52.648;1.214;2024-03-22T01:12:52;101223.16;;;10.49;81.41
66381;BME280;53177;52.648;1.214;2024-03-22T01:15:17;101231.97;;;10.49;81.44
66381;BME280;53177;52.648;1.214;2024-03-22T01:17:43;101219.59;;;10.50;82.10
66381;BME280;53177;52.648;1.214;2024-03-22T01:20:09;101218.00;;;10.41;82.72
66381;BME280;53177;52.648;1.214;2024-03-22T01:22:34;101203.84;;;10.44;83.25
66381;BME280;53177;52.648;1.214;2024-03-22T01:25:00;101211.69;;;10.50;83.26
66381;BME280;53177;52.648;1.214;2024-03-22T01:27:25;101207.25;;;10.52;83.38
66381;BME280;53177;52.648;1.214;2024-03-22T01:29:51;101203.78;;;10.48;83.67
66381;BME280;53177;52.648;1.214;2024-03-22T01:32:16;101208.19;;;10.48;84.26
66381;BME280;53177;52.648;1.214;2024-03-22T01:34:41;101204.50;;;10.58;83.35
66381;BME280;53177;52.648;1.214;2024-03-22T01:37:07;101194.09;;;10.49;83.99
66381;BME280;53177;52.648;1.214;2024-03-22T01:39:32;101187.88;;;10.51;84.85
66381;BME280;53177;52.648;1.214;2024-03-22T01:41:57;101193.25;;;10.45;85.40
66381;BME280;53177;52.648;1.214;2024-03-22T01:44:29;101184.41;;;10.48;85.54
66381;BME280;53177;52.648;1.214;2024-03-22T01:46:56;101187.03;;;10.48;85.97
66381;BME280;53177;52.648;1.214;2024-03-22T01:49:23;101194.09;;;10.49;86.92
66381;BME280;53177;52.648;1.214;2024-03-22T01:51:50;101188.84;;;10.44;86.99
66381;BME280;53177;52.648;1.214;2024-03-22T01:54:16;101183.56;;;10.44;87.73
66381;BME280;53177;52.648;1.214;2024-03-22T01:56:42;101192.44;;;10.42;88.92
66381;BME280;53177;52.648;1.214;2024-03-22T01:59:07;101186.28;;;10.40;88.14
66381;BME280;53177;52.648;1.214;2024-03-22T02:01:33;101177.41;;;10.45;88.31
66381;BME280;53177;52.648;1.214;2024-03-22T02:04:00;101177.41;;;10.44;88.68
66381;BME280;53177;52.648;1.214;2024-03-22T02:06:25;101179.16;;;10.45;88.66
66381;BME280;53177;52.648;1.214;2024-03-22T02:08:51;101180.94;;;10.44;88.58
66381;BME280;53177;52.648;1.214;2024-03-22T02:11:16;101176.63;;;10.37;90.10
66381;BME280;53177;52.648;1.214;2024-03-22T02:13:42;101171.41;;;10.31;90.29
66381;BME280;53177;52.648;1.214;2024-03-22T02:16:10;101166.97;;;10.35;91.01
66381;BME280;53177;52.648;1.214;2024-03-22T02:18:36;101158.22;;;10.30;92.29
66381;BME280;53177;52.648;1.214;2024-03-22T02:21:01;101163.41;;;10.37;91.66
66381;BME280;53177;52.648;1.214;2024-03-22T02:23:32;101159.81;;;10.41;91.17
66381;BME280;53177;52.648;1.214;2024-03-22T02:25:58;101161.53;;;10.44;91.42
66381;BME280;53177;52.648;1.214;2024-03-22T02:28:23;101165.19;;;10.35;92.86
66381;BME280;53177;52.648;1.214;2024-03-22T02:30:49;101162.53;;;10.37;93.00
66381;BME280;53177;52.648;1.214;2024-03-22T02:33:14;101160.75;;;10.37;93.32
66381;BME280;53177;52.648;1.214;2024-03-22T02:35:39;101158.06;;;10.40;93.37
66381;BME280;53177;52.648;1.214;2024-03-22T02:38:05;101149.31;;;10.37;93.47
66381;BME280;53177;52.648;1.214;2024-03-22T02:40:30;101149.38;;;10.32;94.00
66381;BME280;53177;52.648;1.214;2024-03-22T02:42:55;101145.00;;;10.30;95.65
66381;BME280;53177;52.648;1.214;2024-03-22T02:45:21;101146.78;;;10.31;95.21
66381;BME280;53177;52.648;1.214;2024-03-22T02:47:46;101129.94;;;10.36;95.14
66381;BME280;53177;52.648;1.214;2024-03-22T02:50:12;101130.91;;;10.29;96.12
66381;BME280;53177;52.648;1.214;2024-03-22T02:52:37;101128.28;;;10.27;96.57
66381;BME280;53177;52.648;1.214;2024-03-22T02:55:02;101125.63;;;10.29;96.67
66381;BME280;53177;52.648;1.214;2024-03-22T02:57:28;101118.63;;;10.25;97.50
66381;BME280;53177;52.648;1.214;2024-03-22T02:59:53;101128.41;;;10.20;98.40
66381;BME280;53177;52.648;1.214;2024-03-22T03:02:19;101144.25;;;10.20;99.17
66381;BME280;53177;52.648;1.214;2024-03-22T03:04:44;101131.91;;;10.23;99.07
66381;BME280;53177;52.648;1.214;2024-03-22T03:07:10;101127.63;;;10.15;99.74
66381;BME280;53177;52.648;1.214;2024-03-22T03:09:36;101116.13;;;10.13;100.00
66381;BME280;53177;52.648;1.214;2024-03-22T03:12:01;101120.53;;;10.14;100.00
66381;BME280;53177;52.648;1.214;2024-03-22T03:14:27;101120.53;;;10.14;100.00
66381;BME280;53177;52.648;1.214;2024-03-22T03:16:52;101119.63;;;10.18;100.00
66381;BME280;53177;52.648;1.214;2024-03-22T03:19:17;101116.19;;;10.11;100.00
66381;BME280;53177;52.648;1.214;2024-03-22T03:21:43;101118.84;;;10.10;100.00
66381;BME280;53177;52.648;1.214;2024-03-22T03:24:08;101117.94;;;10.09;100.00
66381;BME280;53177;52.648;1.214;2024-03-22T03:26:34;101118.88;;;10.05;100.00
66381;BME280;53177;52.648;1.214;2024-03-22T03:29:00;101120.69;;;10.02;100.00
66381;BME280;53177;52.648;1.214;2024-03-22T03:31:25;101113.69;;;9.99;100.00
66381;BME280;53177;52.648;1.214;2024-03-22T03:33:50;101107.53;;;10.00;100.00
66381;BME280;53177;52.648;1.214;2024-03-22T03:36:16;101112.88;;;9.97;100.00
66381;BME280;53177;52.648;1.214;2024-03-22T03:38:41;101096.97;;;9.99;100.00
66381;BME280;53177;52.648;1.214;2024-03-22T03:41:07;101105.84;;;9.95;100.00
66381;BME280;53177;52.648;1.214;2024-03-22T03:43:32;101117.31;;;9.92;100.00
66381;BME280;53177;52.648;1.214;2024-03-22T03:45:57;101098.84;;;9.91;100.00
66381;BME280;53177;52.648;1.214;2024-03-22T03:48:23;101099.72;;;9.91;100.00
66381;BME280;53177;52.648;1.214;2024-03-22T03:50:56;101102.28;;;9.97;100.00
66381;BME280;53177;52.648;1.214;2024-03-22T03:53:24;101098.81;;;9.94;100.00
66381;BME280;53177;52.648;1.214;2024-03-22T03:55:50;101104.13;;;9.91;100.00
66381;BME280;53177;52.648;1.214;2024-03-22T03:58:15;101103.28;;;9.89;100.00
66381;BME280;53177;52.648;1.214;2024-03-22T04:00:43;101106.81;;;9.88;100.00
66381;BME280;53177;52.648;1.214;2024-03-22T04:03:08;101099.66;;;9.94;100.00
66381;BME280;53177;52.648;1.214;2024-03-22T04:05:34;101101.47;;;9.92;100.00
66381;BME280;53177;52.648;1.214;2024-03-22T04:07:59;101098.84;;;9.91;100.00
66381;BME280;53177;52.648;1.214;2024-03-22T04:10:25;101097.03;;;9.94;100.00
66381;BME280;53177;52.648;1.214;2024-03-22T04:12:50;101090.84;;;9.95;100.00
66381;BME280;53177;52.648;1.214;2024-03-22T04:15:15;101092.66;;;9.92;100.00
66381;BME280;53177;52.648;1.214;2024-03-22T04:17:41;101093.56;;;9.91;100.00
66381;BME280;53177;52.648;1.214;2024-03-22T04:20:06;101093.59;;;9.89;100.00
66381;BME280;53177;52.648;1.214;2024-03-22T04:22:34;101088.31;;;9.88;100.00
66381;BME280;53177;52.648;1.214;2024-03-22T04:24:59;101092.72;;;9.87;100.00
66381;BME280;53177;52.648;1.214;2024-03-22T04:27:24;101096.28;;;9.85;100.00
66381;BME280;53177;52.648;1.214;2024-03-22T04:29:50;101098.16;;;9.78;100.00
66381;BME280;53177;52.648;1.214;2024-03-22T04:32:15;101085.69;;;9.88;100.00
66381;BME280;53177;52.648;1.214;2024-03-22T04:34:44;101095.38;;;9.87;100.00
66381;BME280;53177;52.648;1.214;2024-03-22T04:37:10;101093.59;;;9.89;100.00
66381;BME280;53177;52.648;1.214;2024-03-22T04:39:37;101095.47;;;9.83;100.00
66381;BME280;53177;52.648;1.214;2024-03-22T04:42:02;101095.47;;;9.79;100.00
66381;BME280;53177;52.648;1.214;2024-03-22T04:44:29;101098.16;;;9.76;100.00
66381;BME280;53177;52.648;1.214;2024-03-22T04:46:54;101093.75;;;9.78;100.00
66381;BME280;53177;52.648;1.214;2024-03-22T04:49:19;101103.50;;;9.73;100.00
66381;BME280;53177;52.648;1.214;2024-03-22T04:51:45;101100.91;;;9.69;100.00
66381;BME280;53177;52.648;1.214;2024-03-22T04:54:10;101103.59;;;9.66;100.00
66381;BME280;53177;52.648;1.214;2024-03-22T04:56:36;101100.16;;;9.59;100.00
66381;BME280;53177;52.648;1.214;2024-03-22T04:59:01;101087.06;;;9.52;100.00
66381;BME280;53177;52.648;1.214;2024-03-22T05:01:26;101095.84;;;9.52;100.00
66381;BME280;53177;52.648;1.214;2024-03-22T05:03:52;101083.47;;;9.56;100.00
66381;BME280;53177;52.648;1.214;2024-03-22T05:06:17;101092.28;;;9.56;100.00
66381;BME280;53177;52.648;1.214;2024-03-22T05:08:43;101087.97;;;9.49;100.00
66381;BME280;53177;52.648;1.214;2024-03-22T05:11:09;101088.78;;;9.54;100.00
66381;BME280;53177;52.648;1.214;2024-03-22T05:13:34;101075.59;;;9.53;100.00
66381;BME280;53177;52.648;1.214;2024-03-22T05:16:00;101084.38;;;9.55;100.00
66381;BME280;53177;52.648;1.214;2024-03-22T05:18:25;101080.81;;;9.57;100.00
66381;BME280;53177;52.648;1.214;2024-03-22T05:20:50;101090.63;;;9.49;100.00
66381;BME280;53177;52.648;1.214;2024-03-22T05:23:16;101086.19;;;9.50;100.00
66381;BME280;53177;52.648;1.214;2024-03-22T05:25:42;101091.34;;;9.60;100.00
66381;BME280;53177;52.648;1.214;2024-03-22T05:28:07;101080.88;;;9.51;100.00
66381;BME280;53177;52.648;1.214;2024-03-22T05:30:33;101084.41;;;9.50;100.00
66381;BME280;53177;52.648;1.214;2024-03-22T05:32:59;101082.69;;;9.49;100.00
66381;BME280;53177;52.648;1.214;2024-03-22T05:35:24;101081.81;;;9.47;100.00
66381;BME280;53177;52.648;1.214;2024-03-22T05:37:50;101082.75;;;9.43;100.00
66381;BME280;53177;52.648;1.214;2024-03-22T05:40:16;101084.50;;;9.44;100.00
66381;BME280;53177;52.648;1.214;2024-03-22T05:42:42;101088.94;;;9.41;100.00
66381;BME280;53177;52.648;1.214;2024-03-22T05:45:07;101088.06;;;9.40;100.00
66381;BME280;53177;52.648;1.214;2024-03-22T05:47:33;101095.16;;;9.35;100.00
66381;BME280;53177;52.648;1.214;2024-03-22T05:49:59;101081.13;;;9.32;100.00
66381;BME280;53177;52.648;1.214;2024-03-22T05:52:25;101087.34;;;9.26;100.00
66381;BME280;53177;52.648;1.214;2024-03-22T05:54:51;101081.25;;;9.21;100.00
66381;BME280;53177;52.648;1.214;2024-03-22T05:57:16;101080.41;;;9.19;100.00
66381;BME280;53177;52.648;1.214;2024-03-22T05:59:42;101080.44;;;9.16;100.00
66381;BME280;53177;52.648;1.214;2024-03-22T06:02:07;101070.75;;;9.16;100.00
66381;BME280;53177;52.648;1.214;2024-03-22T06:04:33;101072.47;;;9.20;100.00
66381;BME280;53177;52.648;1.214;2024-03-22T06:06:58;101075.06;;;9.25;100.00
66381;BME280;53177;52.648;1.214;2024-03-22T06:09:26;101072.47;;;9.20;100.00
66381;BME280;53177;52.648;1.214;2024-03-22T06:12:14;101063.69;;;9.20;100.00
66381;BME280;53177;52.648;1.214;2024-03-22T06:14:42;101060.25;;;9.12;100.00
66381;BME280;53177;52.648;1.214;2024-03-22T06:17:08;101062.91;;;9.12;100.00
66381;BME280;53177;52.648;1.214;2024-03-22T06:19:34;101061.09;;;9.14;100.00
66381;BME280;53177;52.648;1.214;2024-03-22T06:22:00;101055.91;;;9.08;100.00
66381;BME280;53177;52.648;1.214;2024-03-22T06:24:25;101056.84;;;9.02;100.00
66381;BME280;53177;52.648;1.214;2024-03-22T06:26:51;101049.75;;;9.09;100.00
66381;BME280;53177;52.648;1.214;2024-03-22T06:29:16;101052.41;;;9.06;100.00
66381;BME280;53177;52.648;1.214;2024-03-22T06:31:42;101057.66;;;9.07;100.00
66381;BME280;53177;52.648;1.214;2024-03-22T06:34:08;101066.47;;;9.06;100.00
66381;BME280;53177;52.648;1.214;2024-03-22T06:36:33;101062.91;;;9.10;100.00
66381;BME280;53177;52.648;1.214;2024-03-22T06:38:59;101066.47;;;9.08;100.00
66381;BME280;53177;52.648;1.214;2024-03-22T06:41:25;101067.31;;;9.10;100.00
66381;BME280;53177;52.648;1.214;2024-03-22T06:43:51;101074.31;;;9.14;100.00
66381;BME280;53177;52.648;1.214;2024-03-22T06:46:17;101084.84;;;9.14;100.00
66381;BME280;53177;52.648;1.214;2024-03-22T06:48:42;101079.44;;;9.26;100.00
66381;BME280;53177;52.648;1.214;2024-03-22T06:51:08;101086.47;;;9.25;100.00
66381;BME280;53177;52.648;1.214;2024-03-22T06:53:33;101081.22;;;9.24;100.00
66381;BME280;53177;52.648;1.214;2024-03-22T06:55:59;101095.25;;;9.27;100.00
66381;BME280;53177;52.648;1.214;2024-03-22T06:58:24;101094.28;;;9.36;100.00
66381;BME280;53177;52.648;1.214;2024-03-22T07:00:50;101099.56;;;9.36;100.00
66381;BME280;53177;52.648;1.214;2024-03-22T07:03:15;101096.91;;;9.36;100.00
66381;BME280;53177;52.648;1.214;2024-03-22T07:05:42;101096.06;;;9.33;100.00
66381;BME280;53177;52.648;1.214;2024-03-22T07:08:08;101091.63;;;9.36;100.00
66381;BME280;53177;52.648;1.214;2024-03-22T07:10:33;101088.91;;;9.45;100.00
66381;BME280;53177;52.648;1.214;2024-03-22T07:12:59;101089.72;;;9.49;100.00
66381;BME280;53177;52.648;1.214;2024-03-22T07:15:24;101088.03;;;9.45;100.00
66381;BME280;53177;52.648;1.214;2024-03-22T07:17:50;101087.06;;;9.52;100.00
66381;BME280;53177;52.648;1.214;2024-03-22T07:20:18;101087.00;;;9.55;100.00
66381;BME280;53177;52.648;1.214;2024-03-22T07:22:44;101089.72;;;9.49;100.00
66381;BME280;53177;52.648;1.214;2024-03-22T07:25:09;101085.34;;;9.49;100.00
66381;BME280;53177;52.648;1.214;2024-03-22T07:27:38;101090.53;;;9.57;100.00
66381;BME280;53177;52.648;1.214;2024-03-22T07:30:04;101085.25;;;9.57;100.00
66381;BME280;53177;52.648;1.214;2024-03-22T07:32:30;101086.91;;;9.62;100.00
66381;BME280;53177;52.648;1.214;2024-03-22T07:34:57;101090.41;;;9.64;100.00
66381;BME280;53177;52.648;1.214;2024-03-22T07:37:22;101087.53;;;9.83;100.00
66381;BME280;53177;52.648;1.214;2024-03-22T07:39:47;101087.38;;;9.93;100.00
66381;BME280;53177;52.648;1.214;2024-03-22T07:42:13;101098.63;;;10.07;100.00
66381;BME280;53177;52.648;1.214;2024-03-22T07:44:38;101098.66;;;10.04;100.00
66381;BME280;53177;52.648;1.214;2024-03-22T07:47:04;101097.84;;;10.01;100.00
66381;BME280;53177;52.648;1.214;2024-03-22T07:49:29;101095.94;;;10.09;100.00
66381;BME280;53177;52.648;1.214;2024-03-22T07:51:56;101103.81;;;10.15;100.00
66381;BME280;53177;52.648;1.214;2024-03-22T07:54:22;101114.41;;;10.15;100.00
66381;BME280;53177;52.648;1.214;2024-03-22T07:56:47;101111.47;;;10.33;100.00
66381;BME280;53177;52.648;1.214;2024-03-22T07:59:13;101103.66;;;10.27;100.00
66381;BME280;53177;52.648;1.214;2024-03-22T08:01:38;101100.91;;;10.32;100.00
66381;BME280;53177;52.648;1.214;2024-03-22T08:04:04;101101.75;;;10.35;100.00
66381;BME280;53177;52.648;1.214;2024-03-22T08:06:29;101113.19;;;10.37;100.00
66381;BME280;53177;52.648;1.214;2024-03-22T08:08:54;101109.53;;;10.44;100.00
66381;BME280;53177;52.648;1.214;2024-03-22T08:11:20;101096.34;;;10.43;100.00
66381;BME280;53177;52.648;1.214;2024-03-22T08:13:45;101103.13;;;10.59;100.00
66381;BME280;53177;52.648;1.214;2024-03-22T08:16:11;101104.06;;;10.56;100.00
66381;BME280;53177;52.648;1.214;2024-03-22T08:18:37;101103.94;;;10.62;100.00
66381;BME280;53177;52.648;1.214;2024-03-22T08:21:03;101103.13;;;10.60;100.00
66381;BME280;53177;52.648;1.214;2024-03-22T08:23:29;101105.78;;;10.59;100.00
66381;BME280;53177;52.648;1.214;2024-03-22T08:25:54;101098.53;;;10.70;98.96
66381;BME280;53177;52.648;1.214;2024-03-22T08:28:20;101104.56;;;10.78;97.37
66381;BME280;53177;52.648;1.214;2024-03-22T08:30:45;101102.63;;;10.88;96.23
66381;BME280;53177;52.648;1.214;2024-03-22T08:33:11;101101.81;;;10.84;94.64
66381;BME280;53177;52.648;1.214;2024-03-22T08:35:37;101109.75;;;10.84;91.05
66381;BME280;53177;52.648;1.214;2024-03-22T08:38:02;101113.53;;;10.69;91.51
66381;BME280;53177;52.648;1.214;2024-03-22T08:40:28;101121.34;;;10.75;90.78
66381;BME280;53177;52.648;1.214;2024-03-22T08:42:53;101114.66;;;10.53;88.85
66381;BME280;53177;52.648;1.214;2024-03-22T08:45:19;101126.22;;;10.48;88.07
66381;BME280;53177;52.648;1.214;2024-03-22T08:47:44;101119.00;;;10.59;89.83
66381;BME280;53177;52.648;1.214;2024-03-22T08:50:13;101118.34;;;10.43;89.14
66381;BME280;53177;52.648;1.214;2024-03-22T08:52:38;101114.00;;;10.41;88.90
66381;BME280;53177;52.648;1.214;2024-03-22T08:55:04;101112.13;;;10.49;88.08
66381;BME280;53177;52.648;1.214;2024-03-22T08:57:32;101113.88;;;10.48;87.69
66381;BME280;53177;52.648;1.214;2024-03-22T08:59:57;101115.47;;;10.58;87.77
66381;BME280;53177;52.648;1.214;2024-03-22T09:02:23;101105.66;;;10.65;90.29
66381;BME280;53177;52.648;1.214;2024-03-22T09:04:48;101100.59;;;10.53;90.75
66381;BME280;53177;52.648;1.214;2024-03-22T09:07:14;101102.19;;;10.63;91.24
66381;BME280;53177;52.648;1.214;2024-03-22T09:09:40;101101.19;;;10.70;93.76
66381;BME280;53177;52.648;1.214;2024-03-22T09:12:06;101105.91;;;10.51;92.78
66381;BME280;53177;52.648;1.214;2024-03-22T09:14:32;101108.47;;;10.54;91.09
66381;BME280;53177;52.648;1.214;2024-03-22T09:16:58;101100.47;;;10.60;94.52
66381;BME280;53177;52.648;1.214;2024-03-22T09:19:23;101098.72;;;10.59;94.17
66381;BME280;53177;52.648;1.214;2024-03-22T09:21:49;101094.25;;;10.63;94.44
66381;BME280;53177;52.648;1.214;2024-03-22T09:24:14;101095.97;;;10.65;95.38
66381;BME280;53177;52.648;1.214;2024-03-22T09:26:40;101104.09;;;10.53;92.79
66381;BME280;53177;52.648;1.214;2024-03-22T09:29:05;101109.28;;;10.59;91.43
66381;BME280;53177;52.648;1.214;2024-03-22T09:31:31;101100.28;;;10.69;91.45
66381;BME280;53177;52.648;1.214;2024-03-22T09:33:58;101106.41;;;10.73;88.02
66381;BME280;53177;52.648;1.214;2024-03-22T09:36:23;101114.28;;;10.78;89.87
66381;BME280;53177;52.648;1.214;2024-03-22T09:38:49;101117.16;;;10.62;89.18
66381;BME280;53177;52.648;1.214;2024-03-22T09:41:15;101111.63;;;10.78;88.96
66381;BME280;53177;52.648;1.214;2024-03-22T09:43:44;101123.16;;;10.75;87.61
66381;BME280;53177;52.648;1.214;2024-03-22T09:46:13;101118.94;;;10.63;88.49
66381;BME280;53177;52.648;1.214;2024-03-22T09:48:40;101109.94;;;10.73;90.46
66381;BME280;53177;52.648;1.214;2024-03-22T09:51:07;101116.72;;;10.88;89.67
66381;BME280;53177;52.648;1.214;2024-03-22T09:53:33;101110.63;;;10.83;86.53
66381;BME280;53177;52.648;1.214;2024-03-22T09:55:59;101107.91;;;10.88;86.50
66381;BME280;53177;52.648;1.214;2024-03-22T09:58:26;101115.06;;;10.83;88.08
66381;BME280;53177;52.648;1.214;2024-03-22T10:00:52;101111.75;;;10.71;86.40
66381;BME280;53177;52.648;1.214;2024-03-22T10:03:18;101114.53;;;10.62;86.70
66381;BME280;53177;52.648;1.214;2024-03-22T10:05:44;101105.34;;;10.83;85.84
66381;BME280;53177;52.648;1.214;2024-03-22T10:08:09;101112.66;;;10.69;84.50
66381;BME280;53177;52.648;1.214;2024-03-22T10:10:34;101102.88;;;10.72;85.37
66381;BME280;53177;52.648;1.214;2024-03-22T10:13:01;101108.97;;;10.78;86.79
66381;BME280;53177;52.648;1.214;2024-03-22T10:15:27;101102.75;;;10.80;85.75
66381;BME280;53177;52.648;1.214;2024-03-22T10:17:53;101109.69;;;10.87;84.73
66381;BME280;53177;52.648;1.214;2024-03-22T10:20:21;101106.03;;;10.94;84.10
66381;BME280;53177;52.648;1.214;2024-03-22T10:22:57;101105.06;;;10.98;83.51
66381;BME280;53177;52.648;1.214;2024-03-22T10:25:24;101109.41;;;11.04;82.80
66381;BME280;53177;52.648;1.214;2024-03-22T10:27:49;101109.47;;;11.45;83.48
66381;BME280;53177;52.648;1.214;2024-03-22T10:30:16;101103.81;;;11.63;78.77
66381;BME280;53177;52.648;1.214;2024-03-22T10:32:44;101101.25;;;11.57;78.36
66381;BME280;53177;52.648;1.214;2024-03-22T10:35:13;101115.47;;;11.53;75.14
66381;BME280;53177;52.648;1.214;2024-03-22T10:37:39;101117.00;;;11.20;76.37
66381;BME280;53177;52.648;1.214;2024-03-22T10:40:05;101114.16;;;11.31;78.66
66381;BME280;53177;52.648;1.214;2024-03-22T10:42:35;101124.84;;;11.27;78.27
66381;BME280;53177;52.648;1.214;2024-03-22T10:45:09;101122.50;;;11.10;76.51
66381;BME280;53177;52.648;1.214;2024-03-22T10:47:37;101116.66;;;10.93;76.41
66381;BME280;53177;52.648;1.214;2024-03-22T10:52:34;101127.00;;;11.05;77.37
66381;BME280;53177;52.648;1.214;2024-03-22T10:55:05;101128.88;;;11.00;77.14
66381;BME280;53177;52.648;1.214;2024-03-22T10:57:32;101127.88;;;11.05;79.20
66381;BME280;53177;52.648;1.214;2024-03-22T11:00:02;101121.88;;;10.96;78.03
66381;BME280;53177;52.648;1.214;2024-03-22T11:02:32;101126.38;;;10.91;78.64
66381;BME280;53177;52.648;1.214;2024-03-22T11:04:58;101125.56;;;10.87;79.40
66381;BME280;53177;52.648;1.214;2024-03-22T11:07:28;101119.94;;;11.05;79.71
66381;BME280;53177;52.648;1.214;2024-03-22T11:09:56;101117.47;;;10.95;77.87
66381;BME280;53177;52.648;1.214;2024-03-22T11:12:27;101118.16;;;11.07;78.51
66381;BME280;53177;52.648;1.214;2024-03-22T11:14:53;101127.72;;;11.14;78.94
66381;BME280;53177;52.648;1.214;2024-03-22T11:17:19;101115.56;;;11.04;77.54
66381;BME280;53177;52.648;1.214;2024-03-22T11:19:48;101118.41;;;10.94;72.13
66381;BME280;53177;52.648;1.214;2024-03-22T11:22:13;101129.00;;;10.94;71.41
66381;BME280;53177;52.648;1.214;2024-03-22T11:24:40;101114.22;;;10.79;72.51
66381;BME280;53177;52.648;1.214;2024-03-22T11:27:05;101106.66;;;11.08;74.56
66381;BME280;53177;52.648;1.214;2024-03-22T11:29:31;101092.38;;;11.17;74.28
66381;BME280;53177;52.648;1.214;2024-03-22T11:31:56;101108.03;;;11.28;75.98
66381;BME280;53177;52.648;1.214;2024-03-22T11:34:21;101098.56;;;11.16;75.72
66381;BME280;53177;52.648;1.214;2024-03-22T11:36:47;101097.94;;;11.03;73.66
66381;BME280;53177;52.648;1.214;2024-03-22T11:39:15;101099.41;;;10.70;69.74
66381;BME280;53177;52.648;1.214;2024-03-22T11:41:40;101104.78;;;10.64;69.68
66381;BME280;53177;52.648;1.214;2024-03-22T11:44:06;101095.03;;;10.68;71.60
66381;BME280;53177;52.648;1.214;2024-03-22T11:46:31;101101.94;;;10.77;71.13
66381;BME280;53177;52.648;1.214;2024-03-22T11:48:58;101086.06;;;10.77;67.63
66381;BME280;53177;52.648;1.214;2024-03-22T11:51:24;101086.09;;;10.75;67.29
66381;BME280;53177;52.648;1.214;2024-03-22T11:53:52;101092.78;;;10.45;65.86
66381;BME280;53177;52.648;1.214;2024-03-22T11:56:21;101089.97;;;10.56;67.04
66381;BME280;53177;52.648;1.214;2024-03-22T11:58:49;101092.47;;;10.63;69.21
66381;BME280;53177;52.648;1.214;2024-03-22T12:01:22;101085.06;;;10.84;71.05
66381;BME280;53177;52.648;1.214;2024-03-22T12:03:48;101092.22;;;10.79;68.72
66381;BME280;53177;52.648;1.214;2024-03-22T12:06:15;101095.72;;;10.79;68.71
66381;BME280;53177;52.648;1.214;2024-03-22T12:08:40;101083.28;;;10.84;68.75
66381;BME280;53177;52.648;1.214;2024-03-22T12:11:10;101084.44;;;10.69;67.38
66381;BME280;53177;52.648;1.214;2024-03-22T12:13:35;101064.28;;;10.62;68.72
66381;BME280;53177;52.648;1.214;2024-03-22T12:16:03;101073.91;;;10.66;68.23
66381;BME280;53177;52.648;1.214;2024-03-22T12:18:28;101075.53;;;10.75;69.35
66381;BME280;53177;52.648;1.214;2024-03-22T12:20:54;101069.19;;;10.84;68.36
66381;BME280;53177;52.648;1.214;2024-03-22T12:23:19;101059.19;;;10.52;67.21
66381;BME280;53177;52.648;1.214;2024-03-22T12:25:45;101058.09;;;10.62;67.84
66381;BME280;53177;52.648;1.214;2024-03-22T12:28:10;101064.22;;;10.65;67.59
66381;BME280;53177;52.648;1.214;2024-03-22T12:30:36;101057.91;;;10.74;67.81
66381;BME280;53177;52.648;1.214;2024-03-22T12:33:01;101062.19;;;10.81;67.70
66381;BME280;53177;52.648;1.214;2024-03-22T12:35:27;101056.81;;;10.86;71.03
66381;BME280;53177;52.648;1.214;2024-03-22T12:37:53;101050.28;;;11.03;72.18
66381;BME280;53177;52.648;1.214;2024-03-22T12:40:18;101063.72;;;10.93;69.87
66381;BME280;53177;52.648;1.214;2024-03-22T12:42:44;101058.59;;;10.84;70.35
66381;BME280;53177;52.648;1.214;2024-03-22T12:45:09;101058.53;;;10.87;71.67